sensor_id;sensor_type;location;lat;lon;timestamp;noise_LAeq;noise_LA_min;noise_LA_max;noise_LA01;noise_LA95
71628;Laerm;59477;52.374;9.916;2023-03-25T00:00:38;40.87;35.05;63.14;;
71628;Laerm;59477;52.374;9.916;2023-03-25T00:02:39;40.21;35.45;49.55;;
71628;Laerm;59477;52.374;9.916;2023-03-25T00:04:40;39.55;34.72;49.48;;
71628;Laerm;59477;52.374;9.916;2023-03-25T00:06:40;38.31;34.74;50.74;;
71628;Laerm;59477;52.374;9.916;2023-03-25T00:08:41;38.30;34.56;43.90;;
71628;Laerm;59477;52.374;9.916;2023-03-25T00:10:41;39.93;34.47;49.34;;
71628;Laerm;59477;52.374;9.916;2023-03-25T00:12:42;39.50;35.14;49.60;;
71628;Laerm;59477;52.374;9.916;2023-03-25T00:14:43;38.37;35.34;47.02;;
71628;Laerm;59477;52.374;9.916;2023-03-25T00:16:53;41.07;35.29;52.55;;
71628;Laerm;59477;52.374;9.916;2023-03-25T00:18:53;43.98;36.46;55.03;;
71628;Laerm;59477;52.374;9.916;2023-03-25T00:20:54;38.80;34.33;45.72;;
71628;Laerm;59477;52.374;9.916;2023-03-25T00:22:56;41.35;35.98;46.99;;
71628;Laerm;59477;52.374;9.916;2023-03-25T00:24:56;40.31;36.76;47.19;;
71628;Laerm;59477;52.374;9.916;2023-03-25T00:26:57;44.44;37.87;55.14;;
71628;Laerm;59477;52.374;9.916;2023-03-25T00:28:57;42.36;35.49;50.89;;
71628;Laerm;59477;52.374;9.916;2023-03-25T00:30:59;39.76;35.86;50.94;;
71628;Laerm;59477;52.374;9.916;2023-03-25T00:33:00;44.09;39.28;48.96;;
71628;Laerm;59477;52.374;9.916;2023-03-25T00:35:01;42.58;36.07;55.52;;
71628;Laerm;59477;52.374;9.916;2023-03-25T00:37:01;40.31;37.06;49.37;;
71628;Laerm;59477;52.374;9.916;2023-03-25T00:39:03;39.68;35.52;51.37;;
71628;Laerm;59477;52.374;9.916;2023-03-25T00:41:14;39.20;35.38;49.20;;
71628;Laerm;59477;52.374;9.916;2023-03-25T00:43:16;40.06;36.69;46.86;;
71628;Laerm;59477;52.374;9.916;2023-03-25T00:45:17;39.94;35.50;56.06;;
71628;Laerm;59477;52.374;9.916;2023-03-25T00:47:18;39.87;35.71;49.60;;
71628;Laerm;59477;52.374;9.916;2023-03-25T00:49:20;39.12;34.01;45.67;;
71628;Laerm;59477;52.374;9.916;2023-03-25T00:51:25;38.99;35.09;55.81;;
71628;Laerm;59477;52.374;9.916;2023-03-25T00:53:26;39.68;34.56;51.58;;
71628;Laerm;59477;52.374;9.916;2023-03-25T00:55:44;43.10;37.07;50.55;;
71628;Laerm;59477;52.374;9.916;2023-03-25T00:57:45;42.00;36.88;59.78;;
71628;Laerm;59477;52.374;9.916;2023-03-25T01:00:05;41.95;37.23;55.54;;
71628;Laerm;59477;52.374;9.916;2023-03-25T01:02:07;39.80;35.91;51.94;;
71628;Laerm;59477;52.374;9.916;2023-03-25T01:04:08;41.32;35.33;62.37;;
71628;Laerm;59477;52.374;9.916;2023-03-25T01:06:35;42.96;35.16;49.27;;
71628;Laerm;59477;52.374;9.916;2023-03-25T01:08:36;44.07;37.70;52.43;;
71628;Laerm;59477;52.374;9.916;2023-03-25T01:10:37;42.28;36.00;47.94;;
71628;Laerm;59477;52.374;9.916;2023-03-25T01:12:38;39.07;35.00;43.19;;
71628;Laerm;59477;52.374;9.916;2023-03-25T01:14:56;41.39;36.86;50.69;;
71628;Laerm;59477;52.374;9.916;2023-03-25T01:16:57;41.57;36.19;51.10;;
71628;Laerm;59477;52.374;9.916;2023-03-25T01:18:58;41.65;34.72;59.80;;
71628;Laerm;59477;52.374;9.916;2023-03-25T01:21:17;38.70;35.12;48.53;;
71628;Laerm;59477;52.374;9.916;2023-03-25T01:23:36;39.87;36.31;50.61;;
71628;Laerm;59477;52.374;9.916;2023-03-25T01:25:37;42.72;37.62;49.00;;
71628;Laerm;59477;52.374;9.916;2023-03-25T01:27:38;40.73;36.96;47.80;;
71628;Laerm;59477;52.374;9.916;2023-03-25T01:29:39;42.43;35.87;60.17;;
71628;Laerm;59477;52.374;9.916;2023-03-25T01:31:39;43.27;36.77;47.73;;
71628;Laerm;59477;52.374;9.916;2023-03-25T01:33:58;39.75;34.60;46.24;;
71628;Laerm;59477;52.374;9.916;2023-03-25T01:35:59;42.02;37.01;57.59;;
71628;Laerm;59477;52.374;9.916;2023-03-25T01:37:59;39.77;35.48;46.48;;
71628;Laerm;59477;52.374;9.916;2023-03-25T01:40:00;45.10;35.95;67.86;;
71628;Laerm;59477;52.374;9.916;2023-03-25T01:42:00;38.26;33.53;57.01;;
71628;Laerm;59477;52.374;9.916;2023-03-25T01:44:02;39.99;34.74;60.66;;
71628;Laerm;59477;52.374;9.916;2023-03-25T01:46:03;41.81;35.26;51.63;;
71628;Laerm;59477;52.374;9.916;2023-03-25T01:48:07;42.28;37.84;50.96;;
71628;Laerm;59477;52.374;9.916;2023-03-25T01:50:09;39.44;35.46;46.62;;
71628;Laerm;59477;52.374;9.916;2023-03-25T01:52:32;39.52;35.56;46.15;;
71628;Laerm;59477;52.374;9.916;2023-03-25T01:54:33;42.99;36.44;50.36;;
71628;Laerm;59477;52.374;9.916;2023-03-25T01:56:35;44.06;37.43;55.83;;
71628;Laerm;59477;52.374;9.916;2023-03-25T01:58:38;40.08;35.55;46.88;;
71628;Laerm;59477;52.374;9.916;2023-03-25T02:00:39;43.61;36.67;50.98;;
71628;Laerm;59477;52.374;9.916;2023-03-25T02:02:40;41.61;36.71;55.09;;
71628;Laerm;59477;52.374;9.916;2023-03-25T02:06:44;41.50;36.94;52.63;;
71628;Laerm;59477;52.374;9.916;2023-03-25T02:08:46;41.27;36.69;58.28;;
71628;Laerm;59477;52.374;9.916;2023-03-25T02:10:47;39.69;34.96;48.48;;
71628;Laerm;59477;52.374;9.916;2023-03-25T02:12:48;39.69;34.82;48.82;;
71628;Laerm;59477;52.374;9.916;2023-03-25T02:14:49;42.25;36.34;59.87;;
71628;Laerm;59477;52.374;9.916;2023-03-25T02:17:11;43.67;36.75;65.93;;
71628;Laerm;59477;52.374;9.916;2023-03-25T02:34:38;44.44;38.80;54.29;;
71628;Laerm;59477;52.374;9.916;2023-03-25T02:39:00;50.37;39.86;63.91;;
71628;Laerm;59477;52.374;9.916;2023-03-25T02:41:07;45.70;41.15;57.73;;
71628;Laerm;59477;52.374;9.916;2023-03-25T02:43:17;45.48;40.22;68.93;;
71628;Laerm;59477;52.374;9.916;2023-03-25T02:45:23;45.11;38.36;58.27;;
71628;Laerm;59477;52.374;9.916;2023-03-25T02:47:45;44.94;38.94;62.89;;
71628;Laerm;59477;52.374;9.916;2023-03-25T02:49:53;43.86;37.65;56.11;;
71628;Laerm;59477;52.374;9.916;2023-03-25T02:52:04;43.48;37.61;59.43;;
71628;Laerm;59477;52.374;9.916;2023-03-25T02:54:08;45.60;39.81;67.91;;
71628;Laerm;59477;52.374;9.916;2023-03-25T02:56:30;46.21;40.15;56.55;;
71628;Laerm;59477;52.374;9.916;2023-03-25T02:58:39;41.68;36.67;51.66;;
71628;Laerm;59477;52.374;9.916;2023-03-25T03:00:41;41.01;36.22;48.34;;
71628;Laerm;59477;52.374;9.916;2023-03-25T03:03:01;44.43;37.99;60.05;;
71628;Laerm;59477;52.374;9.916;2023-03-25T03:05:18;44.86;39.08;63.07;;
71628;Laerm;59477;52.374;9.916;2023-03-25T03:07:22;42.71;37.83;64.88;;
71628;Laerm;59477;52.374;9.916;2023-03-25T03:09:24;44.92;38.52;59.42;;
71628;Laerm;59477;52.374;9.916;2023-03-25T03:11:27;47.84;39.67;71.14;;
71628;Laerm;59477;52.374;9.916;2023-03-25T03:20:31;42.84;38.30;51.43;;
71628;Laerm;59477;52.374;9.916;2023-03-25T03:22:41;43.58;38.71;56.15;;
71628;Laerm;59477;52.374;9.916;2023-03-25T03:24:49;44.73;39.16;53.08;;
71628;Laerm;59477;52.374;9.916;2023-03-25T03:29:00;41.37;35.97;48.35;;
71628;Laerm;59477;52.374;9.916;2023-03-25T03:31:10;41.49;36.46;48.11;;
71628;Laerm;59477;52.374;9.916;2023-03-25T03:35:44;40.87;36.32;49.07;;
71628;Laerm;59477;52.374;9.916;2023-03-25T03:37:50;40.53;36.53;44.96;;
71628;Laerm;59477;52.374;9.916;2023-03-25T03:39:53;45.12;39.40;65.83;;
71628;Laerm;59477;52.374;9.916;2023-03-25T03:41:56;47.61;40.06;57.22;;
71628;Laerm;59477;52.374;9.916;2023-03-25T03:43:59;42.57;39.10;48.45;;
71628;Laerm;59477;52.374;9.916;2023-03-25T03:46:04;44.38;39.55;51.23;;
71628;Laerm;59477;52.374;9.916;2023-03-25T03:48:31;44.51;39.58;58.95;;
71628;Laerm;59477;52.374;9.916;2023-03-25T03:50:43;42.14;38.25;48.67;;
71628;Laerm;59477;52.374;9.916;2023-03-25T03:52:59;45.43;38.34;53.47;;
71628;Laerm;59477;52.374;9.916;2023-03-25T03:55:03;45.31;38.06;57.99;;
71628;Laerm;59477;52.374;9.916;2023-03-25T03:57:35;44.13;38.96;62.31;;
71628;Laerm;59477;52.374;9.916;2023-03-25T03:59:41;43.01;38.75;49.78;;
71628;Laerm;59477;52.374;9.916;2023-03-25T04:01:45;41.79;36.36;48.96;;
71628;Laerm;59477;52.374;9.916;2023-03-25T04:03:50;44.48;38.78;55.03;;
71628;Laerm;59477;52.374;9.916;2023-03-25T04:06:01;42.48;37.80;55.15;;
71628;Laerm;59477;52.374;9.916;2023-03-25T04:12:51;45.01;39.43;64.48;;
71628;Laerm;59477;52.374;9.916;2023-03-25T04:14:54;43.98;36.84;54.68;;
71628;Laerm;59477;52.374;9.916;2023-03-25T04:16:55;48.52;38.40;57.49;;
71628;Laerm;59477;52.374;9.916;2023-03-25T04:18:55;43.78;38.10;55.42;;
71628;Laerm;59477;52.374;9.916;2023-03-25T04:20:57;43.66;37.89;55.80;;
71628;Laerm;59477;52.374;9.916;2023-03-25T04:22:59;44.80;38.46;57.16;;
71628;Laerm;59477;52.374;9.916;2023-03-25T04:25:00;46.00;39.77;57.16;;
71628;Laerm;59477;52.374;9.916;2023-03-25T04:27:01;44.26;38.30;53.93;;
71628;Laerm;59477;52.374;9.916;2023-03-25T04:29:03;45.29;40.19;57.72;;
71628;Laerm;59477;52.374;9.916;2023-03-25T04:31:04;45.92;39.45;56.58;;
71628;Laerm;59477;52.374;9.916;2023-03-25T04:33:08;48.00;41.97;63.68;;
71628;Laerm;59477;52.374;9.916;2023-03-25T04:35:10;46.82;40.90;55.41;;
71628;Laerm;59477;52.374;9.916;2023-03-25T04:37:10;45.56;40.35;58.69;;
71628;Laerm;59477;52.374;9.916;2023-03-25T04:39:12;45.36;39.90;57.00;;
71628;Laerm;59477;52.374;9.916;2023-03-25T04:41:13;44.44;40.03;51.19;;
71628;Laerm;59477;52.374;9.916;2023-03-25T04:43:14;44.14;38.94;52.14;;
71628;Laerm;59477;52.374;9.916;2023-03-25T04:45:15;49.44;40.42;67.85;;
71628;Laerm;59477;52.374;9.916;2023-03-25T04:47:16;49.94;38.73;66.94;;
71628;Laerm;59477;52.374;9.916;2023-03-25T04:49:20;49.40;39.37;65.76;;
71628;Laerm;59477;52.374;9.916;2023-03-25T04:51:22;47.06;39.52;60.91;;
71628;Laerm;59477;52.374;9.916;2023-03-25T04:53:26;45.80;40.46;61.37;;
71628;Laerm;59477;52.374;9.916;2023-03-25T04:55:27;44.97;39.65;56.23;;
71628;Laerm;59477;52.374;9.916;2023-03-25T04:57:29;42.84;37.67;55.84;;
71628;Laerm;59477;52.374;9.916;2023-03-25T04:59:30;44.88;37.61;63.68;;
71628;Laerm;59477;52.374;9.916;2023-03-25T05:01:31;42.59;36.08;57.19;;
71628;Laerm;59477;52.374;9.916;2023-03-25T05:03:32;49.95;37.41;69.69;;
71628;Laerm;59477;52.374;9.916;2023-03-25T05:05:32;44.36;38.40;64.53;;
71628;Laerm;59477;52.374;9.916;2023-03-25T05:07:33;44.01;39.32;54.03;;
71628;Laerm;59477;52.374;9.916;2023-03-25T05:09:34;44.96;39.43;58.19;;
71628;Laerm;59477;52.374;9.916;2023-03-25T05:11:35;43.94;39.07;53.55;;
71628;Laerm;59477;52.374;9.916;2023-03-25T05:13:41;44.43;40.30;54.81;;
71628;Laerm;59477;52.374;9.916;2023-03-25T05:15:41;45.12;39.70;59.61;;
71628;Laerm;59477;52.374;9.916;2023-03-25T05:18:00;45.58;39.91;54.11;;
71628;Laerm;59477;52.374;9.916;2023-03-25T05:20:04;43.69;39.91;49.34;;
71628;Laerm;59477;52.374;9.916;2023-03-25T05:22:09;44.74;41.15;49.83;;
71628;Laerm;59477;52.374;9.916;2023-03-25T05:24:10;45.68;38.18;55.66;;
71628;Laerm;59477;52.374;9.916;2023-03-25T05:26:11;44.70;40.92;57.37;;
71628;Laerm;59477;52.374;9.916;2023-03-25T05:28:12;47.84;40.51;62.38;;
71628;Laerm;59477;52.374;9.916;2023-03-25T05:30:13;47.81;42.55;63.81;;
71628;Laerm;59477;52.374;9.916;2023-03-25T05:32:15;47.99;41.86;67.74;;
71628;Laerm;59477;52.374;9.916;2023-03-25T05:34:17;47.22;41.41;64.26;;
71628;Laerm;59477;52.374;9.916;2023-03-25T05:36:17;46.28;40.47;63.68;;
71628;Laerm;59477;52.374;9.916;2023-03-25T05:38:18;45.77;40.80;63.10;;
71628;Laerm;59477;52.374;9.916;2023-03-25T05:40:18;52.10;44.01;75.25;;
71628;Laerm;59477;52.374;9.916;2023-03-25T05:42:39;50.50;45.68;69.02;;
71628;Laerm;59477;52.374;9.916;2023-03-25T05:44:48;57.98;46.28;85.27;;
71628;Laerm;59477;52.374;9.916;2023-03-25T05:46:52;57.75;45.84;78.72;;
71628;Laerm;59477;52.374;9.916;2023-03-25T05:48:52;50.27;42.41;64.13;;
71628;Laerm;59477;52.374;9.916;2023-03-25T05:50:55;47.50;39.26;65.75;;
71628;Laerm;59477;52.374;9.916;2023-03-25T05:52:56;43.71;39.29;64.34;;
71628;Laerm;59477;52.374;9.916;2023-03-25T05:55:16;43.27;39.23;60.91;;
71628;Laerm;59477;52.374;9.916;2023-03-25T05:57:17;44.99;38.76;67.36;;
71628;Laerm;59477;52.374;9.916;2023-03-25T05:59:18;46.25;42.01;59.51;;
71628;Laerm;59477;52.374;9.916;2023-03-25T06:01:20;44.74;39.86;59.93;;
71628;Laerm;59477;52.374;9.916;2023-03-25T06:03:21;43.77;39.19;56.93;;
71628;Laerm;59477;52.374;9.916;2023-03-25T06:05:25;49.01;37.89;71.69;;
71628;Laerm;59477;52.374;9.916;2023-03-25T06:07:29;42.91;38.68;61.77;;
71628;Laerm;59477;52.374;9.916;2023-03-25T06:09:30;44.56;39.72;62.55;;
71628;Laerm;59477;52.374;9.916;2023-03-25T06:11:34;42.51;37.70;59.87;;
71628;Laerm;59477;52.374;9.916;2023-03-25T06:13:46;44.20;39.41;64.90;;
71628;Laerm;59477;52.374;9.916;2023-03-25T06:15:50;45.86;39.71;68.55;;
71628;Laerm;59477;52.374;9.916;2023-03-25T06:17:55;44.32;40.33;59.71;;
71628;Laerm;59477;52.374;9.916;2023-03-25T06:19:56;48.71;39.96;72.60;;
71628;Laerm;59477;52.374;9.916;2023-03-25T06:21:56;46.93;39.27;58.85;;
71628;Laerm;59477;52.374;9.916;2023-03-25T06:23:57;48.41;40.64;61.76;;
71628;Laerm;59477;52.374;9.916;2023-03-25T06:25:58;43.67;39.82;59.31;;
71628;Laerm;59477;52.374;9.916;2023-03-25T06:28:17;43.67;39.75;55.46;;
71628;Laerm;59477;52.374;9.916;2023-03-25T06:30:19;44.35;39.54;58.36;;
71628;Laerm;59477;52.374;9.916;2023-03-25T06:32:38;44.37;40.12;57.21;;
71628;Laerm;59477;52.374;9.916;2023-03-25T06:34:57;48.00;41.22;61.13;;
71628;Laerm;59477;52.374;9.916;2023-03-25T06:36:58;46.47;41.14;64.38;;
71628;Laerm;59477;52.374;9.916;2023-03-25T06:38:59;44.76;40.54;58.54;;
71628;Laerm;59477;52.374;9.916;2023-03-25T06:40:59;50.30;40.72;60.36;;
71628;Laerm;59477;52.374;9.916;2023-03-25T06:43:00;44.71;39.87;64.48;;
71628;Laerm;59477;52.374;9.916;2023-03-25T06:45:00;45.07;39.87;62.94;;
71628;Laerm;59477;52.374;9.916;2023-03-25T06:47:22;45.37;40.04;62.92;;
71628;Laerm;59477;52.374;9.916;2023-03-25T06:49:41;47.75;40.10;70.43;;
71628;Laerm;59477;52.374;9.916;2023-03-25T06:51:41;46.00;40.01;58.42;;
71628;Laerm;59477;52.374;9.916;2023-03-25T06:53:42;47.13;40.87;67.48;;
71628;Laerm;59477;52.374;9.916;2023-03-25T06:55:43;46.82;40.69;57.47;;
71628;Laerm;59477;52.374;9.916;2023-03-25T06:57:44;46.89;41.70;64.88;;
71628;Laerm;59477;52.374;9.916;2023-03-25T06:59:47;46.25;41.13;61.12;;
71628;Laerm;59477;52.374;9.916;2023-03-25T07:01:48;45.62;39.61;58.32;;
71628;Laerm;59477;52.374;9.916;2023-03-25T07:03:49;49.36;41.87;65.91;;
71628;Laerm;59477;52.374;9.916;2023-03-25T07:05:50;44.79;39.96;56.55;;
71628;Laerm;59477;52.374;9.916;2023-03-25T07:07:51;45.41;39.86;61.23;;
71628;Laerm;59477;52.374;9.916;2023-03-25T07:09:51;46.23;40.70;59.70;;
71628;Laerm;59477;52.374;9.916;2023-03-25T07:11:54;44.94;40.02;56.62;;
71628;Laerm;59477;52.374;9.916;2023-03-25T07:13:55;45.89;39.75;66.15;;
71628;Laerm;59477;52.374;9.916;2023-03-25T07:16:14;55.48;40.62;82.78;;
71628;Laerm;59477;52.374;9.916;2023-03-25T07:18:33;47.67;42.43;68.44;;
71628;Laerm;59477;52.374;9.916;2023-03-25T07:20:33;50.05;40.91;64.23;;
71628;Laerm;59477;52.374;9.916;2023-03-25T07:22:34;45.96;41.32;59.56;;
71628;Laerm;59477;52.374;9.916;2023-03-25T07:24:53;45.94;41.40;57.57;;
71628;Laerm;59477;52.374;9.916;2023-03-25T07:27:12;46.46;40.61;60.85;;
71628;Laerm;59477;52.374;9.916;2023-03-25T07:29:13;46.73;41.09;56.90;;
71628;Laerm;59477;52.374;9.916;2023-03-25T07:31:14;47.18;40.89;62.75;;
71628;Laerm;59477;52.374;9.916;2023-03-25T07:33:15;45.67;41.02;55.95;;
71628;Laerm;59477;52.374;9.916;2023-03-25T07:35:16;47.09;41.41;64.35;;
71628;Laerm;59477;52.374;9.916;2023-03-25T07:37:16;45.79;40.74;59.77;;
71628;Laerm;59477;52.374;9.916;2023-03-25T07:39:17;48.03;42.16;60.64;;
71628;Laerm;59477;52.374;9.916;2023-03-25T07:41:18;47.35;43.13;60.04;;
71628;Laerm;59477;52.374;9.916;2023-03-25T07:43:18;49.37;43.37;73.11;;
71628;Laerm;59477;52.374;9.916;2023-03-25T07:45:19;49.04;43.11;64.00;;
71628;Laerm;59477;52.374;9.916;2023-03-25T07:47:19;48.75;41.40;63.33;;
71628;Laerm;59477;52.374;9.916;2023-03-25T07:49:20;49.96;44.78;64.04;;
71628;Laerm;59477;52.374;9.916;2023-03-25T07:51:39;48.66;43.02;62.08;;
71628;Laerm;59477;52.374;9.916;2023-03-25T07:53:39;50.09;43.87;64.91;;
71628;Laerm;59477;52.374;9.916;2023-03-25T07:56:02;49.08;44.31;59.57;;
71628;Laerm;59477;52.374;9.916;2023-03-25T07:58:02;49.56;44.25;61.95;;
71628;Laerm;59477;52.374;9.916;2023-03-25T08:00:03;54.11;43.50;72.33;;
71628;Laerm;59477;52.374;9.916;2023-03-25T08:02:05;50.15;45.16;62.25;;
71628;Laerm;59477;52.374;9.916;2023-03-25T08:04:05;49.51;43.38;67.22;;
71628;Laerm;59477;52.374;9.916;2023-03-25T08:06:06;50.10;44.56;62.13;;
71628;Laerm;59477;52.374;9.916;2023-03-25T08:08:07;51.10;43.04;70.66;;
71628;Laerm;59477;52.374;9.916;2023-03-25T08:10:07;50.72;42.35;71.95;;
71628;Laerm;59477;52.374;9.916;2023-03-25T08:12:09;48.81;43.73;63.62;;
71628;Laerm;59477;52.374;9.916;2023-03-25T08:14:09;46.89;41.87;58.08;;
71628;Laerm;59477;52.374;9.916;2023-03-25T08:16:10;49.08;41.21;71.40;;
71628;Laerm;59477;52.374;9.916;2023-03-25T08:18:29;46.46;42.26;53.16;;
71628;Laerm;59477;52.374;9.916;2023-03-25T08:20:30;45.62;41.53;53.54;;
71628;Laerm;59477;52.374;9.916;2023-03-25T08:22:31;50.14;40.30;70.38;;
71628;Laerm;59477;52.374;9.916;2023-03-25T08:24:31;44.73;40.31;59.02;;
71628;Laerm;59477;52.374;9.916;2023-03-25T08:26:33;48.04;41.27;72.03;;
71628;Laerm;59477;52.374;9.916;2023-03-25T08:28:52;48.10;41.33;65.04;;
71628;Laerm;59477;52.374;9.916;2023-03-25T08:30:54;51.23;42.38;74.95;;
71628;Laerm;59477;52.374;9.916;2023-03-25T08:32:54;48.59;42.60;58.81;;
71628;Laerm;59477;52.374;9.916;2023-03-25T08:34:55;48.78;43.12;68.34;;
71628;Laerm;59477;52.374;9.916;2023-03-25T08:36:56;49.76;44.22;64.67;;
71628;Laerm;59477;52.374;9.916;2023-03-25T08:38:57;50.28;43.23;59.77;;
71628;Laerm;59477;52.374;9.916;2023-03-25T08:40:58;51.54;43.53;73.17;;
71628;Laerm;59477;52.374;9.916;2023-03-25T08:42:58;48.18;42.41;63.37;;
71628;Laerm;59477;52.374;9.916;2023-03-25T08:45:17;48.16;43.08;55.03;;
71628;Laerm;59477;52.374;9.916;2023-03-25T08:47:18;48.38;42.95;65.05;;
71628;Laerm;59477;52.374;9.916;2023-03-25T08:49:37;50.76;42.98;72.00;;
71628;Laerm;59477;52.374;9.916;2023-03-25T08:51:43;47.12;42.42;61.87;;
71628;Laerm;59477;52.374;9.916;2023-03-25T08:54:02;51.65;43.05;62.50;;
71628;Laerm;59477;52.374;9.916;2023-03-25T08:56:03;48.66;42.26;65.54;;
71628;Laerm;59477;52.374;9.916;2023-03-25T08:58:04;47.63;40.12;61.83;;
71628;Laerm;59477;52.374;9.916;2023-03-25T09:00:05;45.91;41.41;59.98;;
71628;Laerm;59477;52.374;9.916;2023-03-25T09:02:16;48.26;42.58;72.00;;
71628;Laerm;59477;52.374;9.916;2023-03-25T09:04:16;47.15;42.27;60.70;;
71628;Laerm;59477;52.374;9.916;2023-03-25T09:06:17;51.95;42.13;74.91;;
71628;Laerm;59477;52.374;9.916;2023-03-25T09:08:17;47.45;41.43;68.76;;
71628;Laerm;59477;52.374;9.916;2023-03-25T09:10:18;48.98;42.64;67.17;;
71628;Laerm;59477;52.374;9.916;2023-03-25T09:12:19;49.51;41.78;72.55;;
71628;Laerm;59477;52.374;9.916;2023-03-25T09:14:37;47.41;41.40;66.29;;
71628;Laerm;59477;52.374;9.916;2023-03-25T09:16:38;49.62;43.11;74.29;;
71628;Laerm;59477;52.374;9.916;2023-03-25T09:18:38;47.63;42.64;58.35;;
71628;Laerm;59477;52.374;9.916;2023-03-25T09:20:39;51.48;42.71;69.08;;
71628;Laerm;59477;52.374;9.916;2023-03-25T09:22:40;51.69;40.54;73.62;;
71628;Laerm;59477;52.374;9.916;2023-03-25T09:24:41;46.27;41.43;53.72;;
71628;Laerm;59477;52.374;9.916;2023-03-25T09:26:41;47.46;41.58;64.51;;
71628;Laerm;59477;52.374;9.916;2023-03-25T09:28:42;46.15;41.29;61.72;;
71628;Laerm;59477;52.374;9.916;2023-03-25T09:30:42;47.94;40.47;63.51;;
71628;Laerm;59477;52.374;9.916;2023-03-25T09:32:43;46.48;41.52;55.23;;
71628;Laerm;59477;52.374;9.916;2023-03-25T09:34:44;47.82;41.45;60.44;;
71628;Laerm;59477;52.374;9.916;2023-03-25T09:37:03;51.13;42.93;68.14;;
71628;Laerm;59477;52.374;9.916;2023-03-25T09:39:03;47.01;41.74;66.73;;
71628;Laerm;59477;52.374;9.916;2023-03-25T09:41:12;49.91;43.08;70.63;;
71628;Laerm;59477;52.374;9.916;2023-03-25T09:47:23;50.21;44.22;65.39;;
71628;Laerm;59477;52.374;9.916;2023-03-25T09:49:26;48.32;42.74;61.12;;
71628;Laerm;59477;52.374;9.916;2023-03-25T09:51:32;53.22;46.23;68.51;;
71628;Laerm;59477;52.374;9.916;2023-03-25T09:55:54;50.12;42.65;61.74;;
71628;Laerm;59477;52.374;9.916;2023-03-25T09:58:14;48.94;42.84;62.32;;
71628;Laerm;59477;52.374;9.916;2023-03-25T10:00:34;47.62;42.27;62.51;;
71628;Laerm;59477;52.374;9.916;2023-03-25T10:02:56;49.02;43.49;61.03;;
71628;Laerm;59477;52.374;9.916;2023-03-25T10:09:15;49.73;43.12;62.55;;
71628;Laerm;59477;52.374;9.916;2023-03-25T10:18:10;50.22;43.24;69.70;;
71628;Laerm;59477;52.374;9.916;2023-03-25T10:20:43;47.80;42.02;62.41;;
71628;Laerm;59477;52.374;9.916;2023-03-25T10:24:55;52.44;45.43;71.13;;
71628;Laerm;59477;52.374;9.916;2023-03-25T10:29:41;48.74;43.23;62.08;;
71628;Laerm;59477;52.374;9.916;2023-03-25T10:31:53;48.39;42.57;64.62;;
71628;Laerm;59477;52.374;9.916;2023-03-25T10:34:16;53.67;45.42;68.81;;
71628;Laerm;59477;52.374;9.916;2023-03-25T10:36:27;49.62;44.88;64.33;;
71628;Laerm;59477;52.374;9.916;2023-03-25T10:38:32;49.79;44.07;66.74;;
71628;Laerm;59477;52.374;9.916;2023-03-25T10:40:37;52.24;43.86;72.30;;
71628;Laerm;59477;52.374;9.916;2023-03-25T10:42:39;51.66;43.92;73.20;;
71628;Laerm;59477;52.374;9.916;2023-03-25T10:44:53;53.14;44.84;73.20;;
71628;Laerm;59477;52.374;9.916;2023-03-25T10:49:21;50.76;44.76;61.41;;
71628;Laerm;59477;52.374;9.916;2023-03-25T10:51:26;54.50;42.66;73.91;;
71628;Laerm;59477;52.374;9.916;2023-03-25T10:53:27;49.92;43.76;67.44;;
71628;Laerm;59477;52.374;9.916;2023-03-25T10:55:30;50.85;42.62;69.37;;
71628;Laerm;59477;52.374;9.916;2023-03-25T10:57:34;50.19;43.56;67.48;;
71628;Laerm;59477;52.374;9.916;2023-03-25T10:59:58;50.28;42.82;69.81;;
71628;Laerm;59477;52.374;9.916;2023-03-25T11:02:00;50.72;43.32;70.09;;
71628;Laerm;59477;52.374;9.916;2023-03-25T11:04:04;50.12;43.94;67.50;;
71628;Laerm;59477;52.374;9.916;2023-03-25T11:06:05;51.85;44.92;68.21;;
71628;Laerm;59477;52.374;9.916;2023-03-25T11:08:07;50.92;43.90;65.22;;
71628;Laerm;59477;52.374;9.916;2023-03-25T11:10:28;50.77;44.59;67.30;;
71628;Laerm;59477;52.374;9.916;2023-03-25T11:12:29;53.53;46.15;65.37;;
71628;Laerm;59477;52.374;9.916;2023-03-25T11:14:31;48.27;42.21;68.15;;
71628;Laerm;59477;52.374;9.916;2023-03-25T11:16:39;49.08;43.13;63.18;;
71628;Laerm;59477;52.374;9.916;2023-03-25T11:18:40;47.04;41.85;54.13;;
71628;Laerm;59477;52.374;9.916;2023-03-25T11:20:52;47.73;41.31;57.16;;
71628;Laerm;59477;52.374;9.916;2023-03-25T11:22:53;49.90;42.49;67.70;;
71628;Laerm;59477;52.374;9.916;2023-03-25T11:27:37;49.03;42.57;57.81;;
71628;Laerm;59477;52.374;9.916;2023-03-25T11:29:39;49.58;42.40;58.90;;
71628;Laerm;59477;52.374;9.916;2023-03-25T11:32:12;47.25;39.72;59.41;;
71628;Laerm;59477;52.374;9.916;2023-03-25T11:34:31;50.54;43.15;59.91;;
71628;Laerm;59477;52.374;9.916;2023-03-25T11:36:34;53.65;46.16;73.84;;
71628;Laerm;59477;52.374;9.916;2023-03-25T11:38:36;50.23;44.93;62.51;;
71628;Laerm;59477;52.374;9.916;2023-03-25T11:40:37;50.87;45.47;61.46;;
71628;Laerm;59477;52.374;9.916;2023-03-25T11:42:52;52.79;46.45;62.13;;
71628;Laerm;59477;52.374;9.916;2023-03-25T11:44:54;52.88;43.83;70.69;;
71628;Laerm;59477;52.374;9.916;2023-03-25T11:47:01;51.88;44.62;67.02;;
71628;Laerm;59477;52.374;9.916;2023-03-25T11:49:07;52.62;42.09;72.99;;
71628;Laerm;59477;52.374;9.916;2023-03-25T11:51:11;56.80;42.40;71.10;;
71628;Laerm;59477;52.374;9.916;2023-03-25T11:53:30;48.91;42.27;73.55;;
71628;Laerm;59477;52.374;9.916;2023-03-25T11:55:52;49.18;41.51;68.07;;
71628;Laerm;59477;52.374;9.916;2023-03-25T11:58:16;48.04;42.33;57.14;;
71628;Laerm;59477;52.374;9.916;2023-03-25T12:02:43;50.20;42.64;61.36;;
71628;Laerm;59477;52.374;9.916;2023-03-25T12:04:54;47.55;41.24;62.33;;
71628;Laerm;59477;52.374;9.916;2023-03-25T12:06:57;54.82;46.15;75.25;;
71628;Laerm;59477;52.374;9.916;2023-03-25T12:08:59;51.53;45.92;68.23;;
71628;Laerm;59477;52.374;9.916;2023-03-25T12:11:28;50.26;44.32;64.46;;
71628;Laerm;59477;52.374;9.916;2023-03-25T12:22:51;51.55;44.33;65.44;;
71628;Laerm;59477;52.374;9.916;2023-03-25T12:27:39;46.78;42.45;54.22;;
71628;Laerm;59477;52.374;9.916;2023-03-25T12:34:08;52.13;45.11;64.38;;
71628;Laerm;59477;52.374;9.916;2023-03-25T12:40:57;48.48;43.82;57.89;;
71628;Laerm;59477;52.374;9.916;2023-03-25T12:43:09;51.63;46.57;62.54;;
71628;Laerm;59477;52.374;9.916;2023-03-25T12:47:50;50.01;44.84;64.14;;
71628;Laerm;59477;52.374;9.916;2023-03-25T12:59:10;49.62;43.36;59.02;;
71628;Laerm;59477;52.374;9.916;2023-03-25T13:03:45;52.51;43.76;61.43;;
71628;Laerm;59477;52.374;9.916;2023-03-25T13:08:09;52.83;44.14;67.87;;
71628;Laerm;59477;52.374;9.916;2023-03-25T13:10:14;48.13;43.18;58.03;;
71628;Laerm;59477;52.374;9.916;2023-03-25T13:12:21;47.90;41.15;64.66;;
71628;Laerm;59477;52.374;9.916;2023-03-25T13:14:27;53.82;41.18;73.23;;
71628;Laerm;59477;52.374;9.916;2023-03-25T13:16:30;53.21;42.84;71.11;;
71628;Laerm;59477;52.374;9.916;2023-03-25T13:20:38;51.04;42.43;73.54;;
71628;Laerm;59477;52.374;9.916;2023-03-25T13:22:42;51.92;44.65;75.36;;
71628;Laerm;59477;52.374;9.916;2023-03-25T13:24:50;47.71;42.84;59.98;;
71628;Laerm;59477;52.374;9.916;2023-03-25T13:26:52;49.89;43.44;64.69;;